This is the latest recevied weather packets stored in our database for station/object R2AKT-13. If no packets are shown the sender has not sent any weather packets the latest 10 day(s).
| Time | Temp. | Humidity | Pressure | Rain* | Wind** | Luminosity | Snow |
|---|---|---|---|---|---|---|---|
| 1788523911 | 20.56° C | 44% | 986.3 hPa | - | 1.79 m/s, 181° | - | - |
| 1788523325 | 21.11° C | 44% | 986.4 hPa | - | 0.45 m/s, 211° | - | - |
| 1788522791 | 20.56° C | 46% | 986.5 hPa | - | 1.34 m/s, 185° | - | - |
| 1788522241 | 20° C | 47% | 986.6 hPa | - | 1.34 m/s, 180° | - | - |
| 1788521646 | 20° C | 48% | 986.7 hPa | - | 0.45 m/s, 211° | - | - |
| 1788521126 | 20° C | 47% | 986.8 hPa | - | 0 m/s | - | - |
| 1788520600 | 19.44° C | 48% | 986.9 hPa | - | 0 m/s | - | - |
| 1788520041 | 21.11° C | 45% | 987.1 hPa | - | 0.45 m/s, 261° | - | - |
| 1788519506 | 19.44° C | 49% | 987.2 hPa | - | 0.45 m/s, 225° | - | - |
| 1788519021 | 20° C | 48% | 987.3 hPa | - | 0 m/s | - | - |
| 1788518517 | 20° C | 49% | 987.3 hPa | - | 0 m/s | - | - |
| 1788517971 | 19.44° C | 49% | 987.3 hPa | - | 0.45 m/s, 255° | - | - |
| 1788517406 | 20° C | 48% | 987.5 hPa | - | 0.89 m/s, 169° | - | - |
| 1788516925 | 19.44° C | 49% | 987.6 hPa | - | 0.45 m/s, 236° | - | - |
| 1788516406 | 19.44° C | 50% | 987.7 hPa | - | 0.45 m/s, 222° | - | - |
| 1788515886 | 18.89° C | 50% | 987.8 hPa | - | 0.89 m/s, 219° | - | - |
| 1788515361 | 20° C | 47% | 987.8 hPa | - | 0.45 m/s, 256° | - | - |
| 1788514876 | 20° C | 48% | 987.9 hPa | - | 0.89 m/s, 197° | - | - |
| 1788514393 | 18.89° C | 50% | 987.9 hPa | - | 0 m/s | - | - |
| 1788513826 | 18.33° C | 50% | 988.1 hPa | - | 0.45 m/s, 246° | - | - |
| 1788513271 | 18.89° C | 51% | 988.2 hPa | - | 0.45 m/s, 255° | - | - |
| 1788512686 | 18.89° C | 52% | 988.2 hPa | - | 0.45 m/s, 192° | - | - |
| 1788512161 | 18.33° C | 54% | 988.2 hPa | - | 0.45 m/s, 257° | - | - |
| 1788511666 | 18.89° C | 52% | 988.3 hPa | - | 0.45 m/s, 244° | - | - |
| 1788511111 | 18.33° C | 53% | 988.4 hPa | - | 0.89 m/s, 227° | - | - |
* Rain since midnight (hover to see other rain measurements)
** Current wind speed in m/s (hover to see current wind gust speed)